Time;durP1;ratioP1;P1;durP2;ratioP2;P2;SDS_P1;SDS_P2;PMS_P1;PMS_P2;Temp;Humidity;BMP_temperature;BMP_pressure;BME280_temperature;BME280_humidity;BME280_pressure;Samples;Min_cycle;Max_cycle;Signal;HPM_P1;HPM_P2
2023/01/13 00:01:46;;;;;;;0.60;0.20;;;10.40;99.90;;;;;;5074989;28;20601;-56
2023/01/13 00:04:13;;;;;;;0.73;0.20;;;10.30;99.90;;;;;;5074828;28;20455;-57
2023/01/13 00:06:41;;;;;;;0.40;0.10;;;10.40;99.90;;;;;;5074868;28;20427;-54
2023/01/13 00:09:09;;;;;;;0.77;0.10;;;10.40;99.90;;;;;;5074446;28;20427;-54
2023/01/13 00:11:36;;;;;;;0.50;0.20;;;10.30;99.90;;;;;;5074890;28;20412;-55
2023/01/13 00:14:04;;;;;;;0.55;0.20;;;10.40;99.90;;;;;;5074182;28;20506;-56
2023/01/13 00:16:31;;;;;;;0.60;0.20;;;10.40;99.90;;;;;;5075256;28;20411;-56
2023/01/13 00:18:58;;;;;;;1.10;0.20;;;10.40;99.90;;;;;;5074552;28;20524;-61
2023/01/13 00:21:25;;;;;;;0.70;0.20;;;10.40;99.90;;;;;;5073427;28;20693;-55
2023/01/13 00:23:54;;;;;;;0.50;0.10;;;10.50;99.90;;;;;;5072740;28;20849;-57
2023/01/13 00:26:25;;;;;;;0.50;0.20;;;10.50;99.90;;;;;;5073561;28;20878;-55
2023/01/13 00:28:59;;;;;;;0.50;0.20;;;10.40;99.90;;;;;;5072315;28;20458;-57
2023/01/13 00:31:27;;;;;;;0.80;0.10;;;10.30;99.90;;;;;;5072206;28;20526;-56
2023/01/13 00:33:57;;;;;;;0.40;0.20;;;10.30;99.90;;;;;;5072943;28;20432;-57
2023/01/13 00:36:24;;;;;;;0.40;0.10;;;10.30;99.90;;;;;;5072732;28;20510;-56
2023/01/13 00:38:51;;;;;;;0.40;0.20;;;10.30;99.90;;;;;;5073266;28;20780;-55
2023/01/13 00:41:20;;;;;;;0.50;0.20;;;10.40;99.90;;;;;;5072868;28;20459;-57
2023/01/13 00:43:48;;;;;;;0.70;0.20;;;10.30;99.90;;;;;;5074327;28;20813;-57
2023/01/13 00:46:17;;;;;;;1.08;0.15;;;10.30;99.90;;;;;;5074375;28;20509;-56
2023/01/13 00:48:45;;;;;;;0.50;0.20;;;10.30;99.90;;;;;;5074375;28;20501;-56
2023/01/13 00:51:15;;;;;;;0.60;0.20;;;10.40;99.90;;;;;;5074541;28;20436;-57
2023/01/13 00:53:45;;;;;;;0.73;0.20;;;10.30;99.90;;;;;;5073954;28;20431;-57
2023/01/13 00:56:14;;;;;;;0.40;0.20;;;10.30;99.90;;;;;;5074237;28;20491;-58
2023/01/13 00:58:42;;;;;;;0.98;0.20;;;10.30;99.90;;;;;;5074480;28;20789;-55
2023/01/13 01:01:13;;;;;;;0.40;0.20;;;10.30;99.90;;;;;;5074522;28;20481;-56
2023/01/13 01:03:40;;;;;;;1.30;0.20;;;10.40;99.90;;;;;;5073842;28;20427;-56
2023/01/13 01:06:10;;;;;;;0.50;0.20;;;10.40;99.90;;;;;;5074278;28;20451;-55
2023/01/13 01:08:38;;;;;;;0.75;0.55;;;10.40;99.90;;;;;;5073023;28;20510;-52
2023/01/13 01:11:06;;;;;;;0.43;0.10;;;10.40;99.90;;;;;;5074507;28;20905;-55
2023/01/13 01:13:34;;;;;;;0.50;0.20;;;10.40;99.90;;;;;;5073029;28;20581;-55
2023/01/13 01:16:06;;;;;;;0.30;0.10;;;10.50;99.90;;;;;;5073733;28;20416;-56
2023/01/13 01:18:37;;;;;;;1.30;0.20;;;10.50;99.90;;;;;;5073323;28;20846;-56
2023/01/13 01:21:05;;;;;;;0.50;0.13;;;10.50;99.90;;;;;;5073366;28;20849;-55
2023/01/13 01:23:32;;;;;;;0.60;0.20;;;10.60;99.90;;;;;;5073177;28;20922;-57
2023/01/13 01:26:01;;;;;;;0.60;0.10;;;10.60;99.90;;;;;;5073780;28;20463;-55
2023/01/13 01:28:29;;;;;;;0.60;0.20;;;10.60;99.90;;;;;;5073852;28;20434;-55
2023/01/13 01:30:57;;;;;;;0.50;0.20;;;10.60;99.90;;;;;;5065026;28;20480;-55
2023/01/13 01:33:24;;;;;;;0.38;0.10;;;10.70;99.90;;;;;;5053638;28;20437;-53
2023/01/13 01:35:53;;;;;;;1.10;0.20;;;10.60;99.90;;;;;;5053240;28;20718;-55
2023/01/13 01:38:22;;;;;;;0.40;0.10;;;10.70;99.90;;;;;;5053763;28;20528;-57
2023/01/13 01:40:49;;;;;;;0.40;0.20;;;10.70;99.90;;;;;;5053172;28;20452;-57
2023/01/13 01:46:04;;;;;;;2.50;0.20;;;10.70;99.90;;;;;;5057303;28;20400;-57
2023/01/13 01:48:34;;;;;;;0.30;0.10;;;10.70;99.90;;;;;;5056996;28;20920;-58
2023/01/13 01:51:04;;;;;;;0.30;0.20;;;10.70;99.90;;;;;;5055287;28;20421;-57
2023/01/13 01:53:33;;;;;;;0.40;0.10;;;10.70;99.90;;;;;;5056762;28;20576;-55
2023/01/13 01:56:01;;;;;;;0.70;0.20;;;10.70;99.90;;;;;;5056529;28;20892;-57
2023/01/13 01:58:32;;;;;;;0.30;0.10;;;10.70;99.90;;;;;;5057331;28;20484;-55
2023/01/13 02:01:00;;;;;;;0.30;0.10;;;10.70;99.90;;;;;;5056008;28;20425;-55
2023/01/13 02:03:27;;;;;;;0.50;0.20;;;10.70;99.90;;;;;;5055915;28;20430;-57
2023/01/13 02:05:54;;;;;;;0.30;0.20;;;10.60;99.90;;;;;;5057225;28;20518;-56
2023/01/13 02:08:24;;;;;;;0.75;0.10;;;10.60;99.90;;;;;;5056749;28;20474;-57
2023/01/13 02:10:54;;;;;;;0.75;0.20;;;10.60;99.90;;;;;;5057738;28;20488;-55
2023/01/13 02:13:22;;;;;;;0.40;0.20;;;10.60;99.90;;;;;;5056098;28;20486;-56
2023/01/13 02:15:57;;;;;;;0.90;0.20;;;10.70;99.90;;;;;;5057547;28;20888;-57
2023/01/13 02:18:43;;;;;;;0.60;0.10;;;10.70;99.90;;;;;;5056461;28;20520;-57
2023/01/13 02:21:32;;;;;;;0.30;0.10;;;10.60;99.90;;;;;;5057343;28;20413;-56
2023/01/13 02:27:52;;;;;;;0.40;0.20;;;10.60;99.90;;;;;;5046465;28;20409;-56
2023/01/13 02:33:26;;;;;;;0.50;0.20;;;10.60;99.90;;;;;;5055388;28;20623;-57
2023/01/13 02:36:01;;;;;;;0.40;0.10;;;10.70;99.90;;;;;;5056965;28;20434;-57
2023/01/13 02:38:33;;;;;;;0.50;0.20;;;10.60;99.90;;;;;;5056727;28;20528;-57
2023/01/13 02:46:38;;;;;;;0.40;0.20;;;10.60;99.90;;;;;;5055491;28;20968;-56
2023/01/13 02:49:09;;;;;;;0.40;0.20;;;10.60;99.90;;;;;;5055740;28;20460;-56
2023/01/13 02:51:38;;;;;;;0.60;0.20;;;10.70;99.90;;;;;;5056310;28;20521;-57
2023/01/13 02:54:09;;;;;;;0.80;0.20;;;10.60;99.90;;;;;;5053916;28;20433;-56
2023/01/13 02:56:42;;;;;;;0.50;0.20;;;10.70;99.90;;;;;;5054669;28;20418;-56
2023/01/13 02:59:11;;;;;;;0.50;0.20;;;10.70;99.90;;;;;;5075449;28;20522;-57
2023/01/13 03:01:40;;;;;;;0.50;0.20;;;10.60;99.90;;;;;;5076214;28;20510;-55
2023/01/13 03:04:14;;;;;;;0.70;0.20;;;10.60;99.90;;;;;;5075595;28;20513;-55
2023/01/13 03:06:52;;;;;;;0.50;0.20;;;10.60;99.90;;;;;;5075686;28;20811;-56
2023/01/13 03:09:28;;;;;;;0.40;0.10;;;10.50;99.90;;;;;;5075810;28;20518;-57
2023/01/13 03:12:07;;;;;;;1.00;0.10;;;10.50;99.90;;;;;;5075541;28;20438;-55
2023/01/13 03:14:40;;;;;;;0.30;0.10;;;10.60;99.90;;;;;;5074491;28;20820;-56
2023/01/13 03:17:20;;;;;;;0.40;0.20;;;10.60;99.90;;;;;;5073843;28;20490;-53
2023/01/13 03:19:58;;;;;;;0.60;0.20;;;10.50;99.90;;;;;;5074997;28;20530;-55
2023/01/13 03:22:32;;;;;;;0.50;0.20;;;10.50;99.90;;;;;;5073858;28;20422;-56
2023/01/13 03:25:07;;;;;;;0.80;0.20;;;10.50;99.90;;;;;;5071830;28;20443;-56
2023/01/13 03:27:44;;;;;;;0.40;0.20;;;10.60;99.90;;;;;;5073343;28;20428;-55
2023/01/13 03:30:17;;;;;;;0.40;0.20;;;10.60;99.90;;;;;;5073695;28;20507;-52
2023/01/13 03:32:51;;;;;;;0.40;0.17;;;10.60;99.90;;;;;;5073141;28;20740;-55
2023/01/13 03:35:23;;;;;;;0.50;0.20;;;10.60;99.90;;;;;;5055131;28;20509;-56
2023/01/13 03:37:55;;;;;;;0.40;0.10;;;10.60;99.90;;;;;;5055771;28;20845;-50
2023/01/13 03:40:27;;;;;;;1.10;0.10;;;10.60;99.90;;;;;;5055628;28;20515;-54
2023/01/13 03:45:50;;;;;;;1.05;0.20;;;10.60;99.90;;;;;;5075853;28;20517;-55
2023/01/13 03:48:21;;;;;;;0.30;0.10;;;10.60;99.90;;;;;;5075445;28;20518;-55
2023/01/13 03:50:52;;;;;;;1.75;0.20;;;10.50;99.90;;;;;;5075498;28;20514;-54
2023/01/13 03:53:23;;;;;;;0.60;0.13;;;10.60;99.90;;;;;;5075147;28;20435;-54
2023/01/13 03:55:55;;;;;;;0.30;0.10;;;10.60;99.90;;;;;;5075796;28;20423;-56
2023/01/13 03:58:26;;;;;;;0.40;0.20;;;10.60;99.90;;;;;;5075538;28;20430;-55
2023/01/13 04:00:58;;;;;;;0.43;0.20;;;10.60;99.90;;;;;;5075046;28;20415;-52
2023/01/13 04:03:33;;;;;;;0.60;0.20;;;10.50;99.90;;;;;;5072865;28;20479;-56
2023/01/13 04:06:09;;;;;;;0.80;0.20;;;10.50;99.90;;;;;;5075787;28;20441;-54
2023/01/13 04:08:40;;;;;;;0.50;0.20;;;10.50;99.90;;;;;;5075119;28;20526;-55
2023/01/13 04:11:12;;;;;;;1.40;0.20;;;10.50;99.90;;;;;;5075399;28;20711;-56
2023/01/13 04:13:42;;;;;;;0.75;0.20;;;10.50;99.90;;;;;;5074308;28;20433;-50
2023/01/13 04:16:11;;;;;;;0.90;0.43;;;10.50;99.90;;;;;;5075491;28;20420;-50
2023/01/13 04:18:40;;;;;;;0.40;0.20;;;10.50;99.90;;;;;;5074825;28;20427;-54
2023/01/13 04:21:08;;;;;;;0.50;0.20;;;10.40;99.90;;;;;;5074831;28;20880;-52
2023/01/13 04:23:35;;;;;;;1.10;0.20;;;10.40;99.90;;;;;;5075188;28;20455;-52
2023/01/13 04:26:02;;;;;;;0.50;0.20;;;10.40;99.90;;;;;;5075152;28;20423;-56
2023/01/13 04:28:29;;;;;;;0.30;0.10;;;10.40;99.90;;;;;;5074462;28;20492;-56
2023/01/13 04:30:57;;;;;;;0.30;0.10;;;10.40;99.90;;;;;;5074968;28;20434;-56
2023/01/13 04:33:24;;;;;;;0.30;0.10;;;10.50;99.90;;;;;;5074530;28;20866;-57
2023/01/13 04:35:53;;;;;;;0.40;0.20;;;10.50;99.90;;;;;;5074152;28;20510;-55
2023/01/13 04:38:22;;;;;;;0.65;0.10;;;10.50;99.90;;;;;;5074801;28;20431;-55
2023/01/13 04:40:49;;;;;;;0.40;0.10;;;10.50;99.90;;;;;;5074863;28;20451;-56
2023/01/13 04:43:16;;;;;;;0.82;0.20;;;10.50;99.90;;;;;;5074402;28;20719;-58
2023/01/13 04:45:43;;;;;;;0.30;0.20;;;10.50;99.90;;;;;;5075112;28;20470;-56
2023/01/13 04:48:11;;;;;;;0.63;0.20;;;10.50;99.90;;;;;;5074685;28;20839;-56
2023/01/13 04:50:38;;;;;;;0.70;0.30;;;10.50;99.90;;;;;;5074589;28;20518;-56
2023/01/13 04:53:07;;;;;;;0.30;0.10;;;10.50;99.90;;;;;;5074849;28;20463;-53
2023/01/13 04:55:34;;;;;;;0.40;0.20;;;10.40;99.90;;;;;;5074585;28;20503;-54
2023/01/13 04:58:05;;;;;;;0.52;0.20;;;10.40;99.90;;;;;;5074558;28;20522;-53
2023/01/13 05:00:33;;;;;;;0.40;0.10;;;10.40;99.90;;;;;;5073879;28;20426;-56
2023/01/13 05:03:00;;;;;;;0.50;0.20;;;10.40;99.90;;;;;;5073712;28;20551;-55
2023/01/13 05:05:28;;;;;;;0.40;0.20;;;10.50;99.90;;;;;;5073839;28;20514;-54
2023/01/13 05:07:56;;;;;;;0.38;0.10;;;10.50;99.90;;;;;;5074432;28;20451;-52
2023/01/13 05:10:25;;;;;;;0.40;0.20;;;10.60;99.90;;;;;;5074546;28;20430;-55
2023/01/13 05:18:23;;;;;;;0.47;0.20;;;10.60;99.90;;;;;;5074711;28;20410;-55
2023/01/13 05:20:50;;;;;;;0.40;0.20;;;10.50;99.90;;;;;;5078238;28;21089;-51
2023/01/13 05:26:04;;;;;;;0.70;0.20;;;10.50;99.90;;;;;;5077696;28;20797;-53
2023/01/13 05:28:32;;;;;;;0.80;0.20;;;10.60;99.90;;;;;;5078017;28;20427;-53
2023/01/13 05:31:00;;;;;;;0.30;0.10;;;10.50;99.90;;;;;;5077830;28;20831;-55
2023/01/13 05:33:27;;;;;;;0.80;0.10;;;10.60;99.90;;;;;;5077679;28;20920;-55
2023/01/13 05:35:54;;;;;;;0.40;0.20;;;10.50;99.90;;;;;;5077097;28;20423;-55
2023/01/13 05:38:21;;;;;;;0.30;0.10;;;10.50;99.90;;;;;;5077581;28;20513;-55
2023/01/13 05:43:34;;;;;;;0.80;0.20;;;10.50;99.90;;;;;;5076973;28;20865;-54
2023/01/13 05:46:03;;;;;;;0.90;0.20;;;10.50;99.90;;;;;;5077903;28;20739;-55
2023/01/13 05:48:32;;;;;;;0.40;0.20;;;10.50;99.90;;;;;;5077602;28;20428;-53
2023/01/13 05:51:00;;;;;;;0.40;0.10;;;10.40;99.90;;;;;;5077557;28;20458;-50
2023/01/13 05:53:28;;;;;;;0.50;0.20;;;10.40;99.90;;;;;;5077308;28;20491;-54
2023/01/13 05:55:56;;;;;;;0.40;0.20;;;10.40;99.90;;;;;;5077171;28;20455;-50
2023/01/13 05:58:25;;;;;;;0.40;0.20;;;10.40;99.90;;;;;;5076681;28;20434;-50
2023/01/13 06:00:58;;;;;;;0.40;0.15;;;10.30;99.90;;;;;;5077252;28;20792;-51
2023/01/13 06:03:26;;;;;;;0.30;0.10;;;10.40;99.90;;;;;;5077003;28;20434;-51
2023/01/13 06:05:57;;;;;;;0.50;0.20;;;10.40;99.90;;;;;;5075479;28;20514;-54
2023/01/13 06:08:25;;;;;;;1.17;0.30;;;10.30;99.90;;;;;;5076731;28;20786;-54
2023/01/13 06:10:52;;;;;;;0.30;0.10;;;10.40;99.90;;;;;;5076351;28;20423;-55
2023/01/13 06:13:19;;;;;;;0.30;0.10;;;10.40;99.90;;;;;;5074577;28;20434;-54
2023/01/13 06:15:46;;;;;;;0.50;0.10;;;10.40;99.90;;;;;;5076322;28;20906;-52
2023/01/13 06:18:15;;;;;;;0.40;0.20;;;10.40;99.90;;;;;;5073648;28;20821;-53
2023/01/13 06:20:42;;;;;;;0.60;0.10;;;10.40;99.90;;;;;;5074946;28;20518;-52
2023/01/13 06:23:11;;;;;;;0.30;0.10;;;10.40;99.90;;;;;;5074331;28;20518;-54
2023/01/13 06:25:44;;;;;;;0.40;0.10;;;10.40;99.90;;;;;;5073663;28;20422;-54
2023/01/13 06:28:11;;;;;;;0.40;0.10;;;10.30;99.90;;;;;;5074534;28;20483;-55
2023/01/13 06:30:41;;;;;;;0.30;0.10;;;10.40;99.90;;;;;;5071405;28;20423;-55
2023/01/13 06:33:12;;;;;;;0.35;0.10;;;10.40;99.90;;;;;;5072226;28;20423;-55
2023/01/13 06:35:44;;;;;;;0.30;0.10;;;10.40;99.90;;;;;;5073230;28;20424;-54
2023/01/13 06:38:15;;;;;;;0.50;0.13;;;10.50;99.90;;;;;;5073734;28;20434;-54
2023/01/13 06:40:43;;;;;;;0.37;0.20;;;10.40;99.90;;;;;;5072380;28;20815;-55
2023/01/13 06:43:16;;;;;;;0.40;0.10;;;10.40;99.90;;;;;;5073461;28;20434;-53
2023/01/13 06:45:46;;;;;;;0.30;0.10;;;10.40;99.90;;;;;;5075093;28;20445;-54
2023/01/13 06:48:14;;;;;;;0.70;0.10;;;10.40;99.90;;;;;;5073413;28;20522;-53
2023/01/13 06:50:42;;;;;;;0.60;0.10;;;10.40;99.90;;;;;;5074575;28;20423;-53
2023/01/13 06:53:10;;;;;;;0.40;0.15;;;10.40;99.90;;;;;;5074510;28;20453;-54
2023/01/13 06:55:37;;;;;;;0.60;0.10;;;10.40;99.90;;;;;;5074461;28;20747;-53
2023/01/13 06:58:05;;;;;;;0.40;0.15;;;10.40;99.90;;;;;;5073968;28;20526;-54
2023/01/13 07:00:34;;;;;;;0.30;0.10;;;10.40;99.90;;;;;;5073769;28;20819;-55
2023/01/13 07:03:09;;;;;;;0.40;0.10;;;10.50;99.90;;;;;;5072748;28;20739;-51
2023/01/13 07:05:37;;;;;;;0.50;0.10;;;10.40;99.90;;;;;;5070440;28;20455;-56
2023/01/13 07:08:08;;;;;;;0.45;0.10;;;10.50;99.90;;;;;;5071920;28;20439;-55
2023/01/13 07:10:37;;;;;;;0.30;0.10;;;10.60;99.90;;;;;;5072039;28;20866;-53
2023/01/13 07:15:54;;;;;;;0.30;0.10;;;10.60;99.90;;;;;;5071459;28;20447;-54
2023/01/13 07:18:22;;;;;;;0.40;0.10;;;10.50;99.90;;;;;;5071968;28;20434;-50
2023/01/13 07:20:53;;;;;;;0.30;0.10;;;10.50;99.90;;;;;;5072650;28;20473;-50
2023/01/13 07:23:22;;;;;;;0.30;0.10;;;10.50;99.90;;;;;;5072089;28;20442;-54
2023/01/13 07:25:50;;;;;;;0.30;0.10;;;10.50;99.90;;;;;;5071358;28;20418;-50
2023/01/13 07:28:17;;;;;;;0.30;0.10;;;10.50;99.90;;;;;;5071158;28;21426;-55
2023/01/13 07:30:44;;;;;;;0.30;0.10;;;10.50;99.90;;;;;;5071328;28;20415;-58
2023/01/13 07:33:12;;;;;;;0.30;0.10;;;10.50;99.90;;;;;;5071989;28;20434;-56
2023/01/13 07:35:39;;;;;;;0.30;0.10;;;10.50;99.90;;;;;;5072161;28;20929;-54
2023/01/13 07:38:07;;;;;;;0.30;0.10;;;10.40;99.90;;;;;;5073545;28;20914;-56
2023/01/13 07:40:35;;;;;;;0.50;0.10;;;10.40;99.90;;;;;;5065222;28;20865;-56
2023/01/13 07:45:47;;;;;;;0.30;0.10;;;10.60;99.90;;;;;;5069738;28;20391;-53
2023/01/13 07:48:14;;;;;;;0.30;0.10;;;10.50;99.90;;;;;;5071001;28;20419;-54
2023/01/13 07:50:41;;;;;;;0.50;0.17;;;10.50;99.90;;;;;;5072462;28;20705;-53
2023/01/13 07:53:09;;;;;;;1.00;0.10;;;10.60;99.90;;;;;;5069724;28;20472;-57
2023/01/13 07:55:41;;;;;;;0.50;0.10;;;10.70;99.90;;;;;;5072525;28;20735;-56
2023/01/13 07:58:09;;;;;;;0.40;0.10;;;10.70;99.90;;;;;;5071444;28;20432;-56
2023/01/13 08:00:36;;;;;;;0.30;0.10;;;10.80;99.90;;;;;;5069521;28;20424;-55
2023/01/13 08:03:04;;;;;;;0.30;0.10;;;10.80;99.90;;;;;;5072266;28;20481;-56
2023/01/13 08:05:31;;;;;;;0.40;0.10;;;10.80;99.90;;;;;;5071426;28;20493;-53
2023/01/13 08:07:58;;;;;;;0.30;0.10;;;10.80;99.90;;;;;;5071921;28;20878;-56
2023/01/13 08:10:25;;;;;;;0.30;0.10;;;10.80;99.90;;;;;;5070937;28;20415;-55
2023/01/13 08:15:39;;;;;;;1.10;0.10;;;10.90;99.90;;;;;;5072209;28;20425;-54
2023/01/13 08:18:06;;;;;;;0.40;0.10;;;10.90;99.90;;;;;;5072717;28;20513;-56
2023/01/13 08:20:33;;;;;;;0.50;0.10;;;10.90;99.90;;;;;;5070889;28;20489;-54
2023/01/13 08:23:01;;;;;;;0.30;0.10;;;10.90;99.90;;;;;;5070210;28;20459;-54
2023/01/13 08:25:30;;;;;;;0.30;0.10;;;10.90;99.90;;;;;;5070991;28;20495;-54
2023/01/13 08:27:59;;;;;;;0.30;0.10;;;11.00;99.90;;;;;;5072627;28;20507;-54
2023/01/13 08:30:27;;;;;;;0.30;0.10;;;11.10;99.90;;;;;;5071320;28;20450;-52
2023/01/13 08:32:55;;;;;;;1.13;0.10;;;11.00;99.90;;;;;;5070749;28;20495;-53
2023/01/13 08:35:22;;;;;;;0.30;0.10;;;11.00;99.90;;;;;;5071254;28;20758;-54
2023/01/13 08:37:50;;;;;;;0.30;0.10;;;11.00;99.90;;;;;;5071661;28;20415;-55
2023/01/13 08:40:19;;;;;;;0.60;0.10;;;11.00;99.90;;;;;;5071849;28;20515;-54
2023/01/13 08:42:47;;;;;;;0.50;0.10;;;10.90;99.90;;;;;;5071877;28;20862;-55
2023/01/13 08:45:15;;;;;;;0.50;0.10;;;10.70;99.90;;;;;;5072568;28;20662;-55
2023/01/13 08:47:43;;;;;;;0.50;0.20;;;10.60;99.90;;;;;;5072974;28;20424;-56
2023/01/13 08:50:13;;;;;;;0.70;0.20;;;10.50;99.90;;;;;;5071321;28;20518;-55
2023/01/13 08:52:40;;;;;;;0.40;0.10;;;10.40;99.90;;;;;;5071944;28;20468;-57
2023/01/13 08:55:08;;;;;;;0.77;0.10;;;10.60;99.90;;;;;;5073792;28;20480;-56
2023/01/13 08:57:35;;;;;;;0.35;0.10;;;10.60;99.90;;;;;;5074001;28;20425;-54
2023/01/13 09:00:04;;;;;;;0.30;0.10;;;10.50;99.90;;;;;;5074671;28;20502;-55
2023/01/13 09:02:33;;;;;;;0.82;0.10;;;10.60;99.90;;;;;;5076164;28;20506;-56
2023/01/13 09:05:02;;;;;;;0.93;0.10;;;10.60;99.90;;;;;;5077018;28;20787;-52
2023/01/13 09:07:30;;;;;;;0.30;0.10;;;10.60;99.90;;;;;;5076485;28;20522;-53
2023/01/13 09:09:57;;;;;;;0.47;0.20;;;10.50;99.90;;;;;;5075264;28;20786;-53
2023/01/13 09:15:10;;;;;;;0.70;0.20;;;10.50;99.90;;;;;;5071150;28;20539;-53
2023/01/13 09:17:39;;;;;;;0.70;0.10;;;10.30;99.90;;;;;;5067412;28;20520;-57
2023/01/13 09:20:07;;;;;;;0.30;0.10;;;10.20;99.90;;;;;;5075796;28;20430;-55
2023/01/13 09:22:36;;;;;;;0.50;0.10;;;10.20;99.90;;;;;;5078981;28;20455;-57
2023/01/13 09:25:04;;;;;;;0.30;0.10;;;10.10;99.90;;;;;;5074321;28;20419;-52
2023/01/13 09:27:31;;;;;;;0.30;0.10;;;10.00;99.90;;;;;;5075305;28;20450;-54
2023/01/13 09:30:01;;;;;;;0.75;0.10;;;9.90;99.90;;;;;;5074859;28;20442;-55
2023/01/13 09:32:28;;;;;;;0.45;0.20;;;9.80;99.90;;;;;;5073725;28;20423;-53
2023/01/13 09:34:58;;;;;;;0.50;0.15;;;9.70;99.90;;;;;;5075951;28;20858;-55
2023/01/13 09:37:26;;;;;;;0.30;0.10;;;9.60;99.90;;;;;;5074498;28;20430;-55
2023/01/13 09:39:53;;;;;;;0.50;0.10;;;9.60;99.90;;;;;;5074898;28;20770;-56
2023/01/13 09:45:16;;;;;;;0.30;0.10;;;9.70;99.90;;;;;;5074143;28;20538;-55
2023/01/13 09:47:51;;;;;;;0.30;0.10;;;9.90;99.90;;;;;;5075779;28;20836;-56
2023/01/13 09:50:29;;;;;;;0.30;0.10;;;10.00;99.90;;;;;;5075548;28;20466;-54
2023/01/13 09:52:59;;;;;;;0.30;0.10;;;10.10;99.90;;;;;;5074702;28;20419;-53
2023/01/13 09:55:32;;;;;;;0.40;0.10;;;10.20;99.90;;;;;;5075242;28;20445;-54
2023/01/13 09:58:04;;;;;;;0.40;0.10;;;10.20;99.90;;;;;;5065810;28;20468;-55
2023/01/13 10:00:37;;;;;;;0.30;0.10;;;10.10;99.90;;;;;;5089454;28;20425;-54
2023/01/13 10:03:18;;;;;;;0.40;0.10;;;10.10;99.90;;;;;;5090135;28;20978;-55
2023/01/13 10:05:55;;;;;;;1.23;0.20;;;10.10;99.90;;;;;;5071042;28;20958;-54
2023/01/13 10:08:25;;;;;;;0.40;0.20;;;10.20;99.90;;;;;;5074639;28;20558;-53
2023/01/13 10:10:56;;;;;;;0.40;0.10;;;10.30;99.90;;;;;;5071330;28;20734;-54
2023/01/13 10:13:24;;;;;;;0.40;0.10;;;10.30;99.90;;;;;;5065708;28;20464;-54
2023/01/13 10:16:19;;;;;;;0.60;0.10;;;10.30;99.90;;;;;;5056370;28;20763;-50
2023/01/13 10:19:00;;;;;;;0.40;0.10;;;10.30;99.90;;;;;;5055259;28;20861;-52
2023/01/13 10:21:56;;;;;;;0.60;0.10;;;10.30;99.90;;;;;;5055583;28;20455;-52
2023/01/13 10:24:34;;;;;;;0.40;0.10;;;10.20;99.90;;;;;;5050608;28;20664;-54
2023/01/13 10:27:04;;;;;;;0.40;0.10;;;10.10;99.90;;;;;;5053740;28;20429;-48
2023/01/13 10:29:33;;;;;;;0.30;0.10;;;10.00;99.90;;;;;;5054941;28;20849;-53
2023/01/13 10:32:01;;;;;;;0.40;0.10;;;10.10;99.90;;;;;;5053890;28;20748;-52
2023/01/13 10:34:28;;;;;;;0.40;0.10;;;10.10;99.90;;;;;;5051968;28;20528;-52
2023/01/13 10:37:06;;;;;;;1.10;0.10;;;10.10;99.90;;;;;;5057503;28;20429;-52
2023/01/13 10:39:41;;;;;;;0.43;0.10;;;10.10;99.90;;;;;;5054623;28;20532;-52
2023/01/13 10:42:14;;;;;;;0.30;0.10;;;10.20;99.90;;;;;;5059712;28;21043;-60
2023/01/13 10:44:50;;;;;;;0.60;0.20;;;10.30;99.90;;;;;;5065791;28;20522;-57
2023/01/13 10:47:22;;;;;;;0.30;0.10;;;10.50;99.90;;;;;;5070964;28;20416;-59
2023/01/13 10:50:02;;;;;;;0.50;0.10;;;10.40;99.90;;;;;;5070725;28;20455;-57
2023/01/13 10:52:32;;;;;;;0.50;0.20;;;10.40;99.90;;;;;;5071447;28;20515;-58
2023/01/13 10:54:59;;;;;;;0.35;0.20;;;10.50;99.90;;;;;;5070708;28;20527;-59
2023/01/13 10:57:27;;;;;;;0.30;0.10;;;10.50;99.90;;;;;;5071870;28;20435;-58
2023/01/13 10:59:56;;;;;;;0.55;0.10;;;10.50;99.90;;;;;;5073460;28;20509;-56
2023/01/13 11:02:29;;;;;;;0.40;0.10;;;10.30;99.90;;;;;;5073476;28;20419;-55
2023/01/13 11:05:16;;;;;;;1.00;0.20;;;10.20;99.90;;;;;;5073031;28;20511;-56
2023/01/13 11:07:51;;;;;;;0.30;0.10;;;10.10;99.90;;;;;;5072584;28;20508;-57
2023/01/13 11:10:24;;;;;;;0.40;0.10;;;10.00;99.90;;;;;;5073226;28;20431;-56
2023/01/13 11:12:59;;;;;;;0.50;0.10;;;9.80;99.90;;;;;;5072994;28;20451;-53
2023/01/13 11:15:39;;;;;;;0.40;0.10;;;9.80;99.90;;;;;;5071516;28;20507;-52
2023/01/13 11:18:15;;;;;;;0.40;0.20;;;9.70;99.90;;;;;;5062631;28;20532;-56
2023/01/13 11:20:45;;;;;;;0.73;0.20;;;9.70;99.90;;;;;;5073616;28;20502;-55
2023/01/13 11:23:20;;;;;;;0.60;0.30;;;9.70;99.90;;;;;;5065294;28;20581;-54
2023/01/13 11:25:52;;;;;;;0.40;0.10;;;9.70;99.90;;;;;;5066134;28;21087;-56
2023/01/13 11:28:37;;;;;;;0.50;0.20;;;9.70;99.90;;;;;;5070155;28;20435;-55
2023/01/13 11:31:11;;;;;;;0.40;0.20;;;9.60;99.90;;;;;;5071226;28;20514;-57
2023/01/13 11:33:44;;;;;;;0.70;0.30;;;9.50;99.90;;;;;;5074117;28;20806;-56
2023/01/13 11:36:14;;;;;;;0.90;0.30;;;9.50;99.90;;;;;;5072219;28;20435;-56
2023/01/13 11:38:49;;;;;;;1.55;0.47;;;9.40;99.90;;;;;;5072113;28;20530;-57
2023/01/13 11:41:25;;;;;;;0.70;0.30;;;9.40;99.90;;;;;;5070655;28;20700;-55
2023/01/13 11:43:59;;;;;;;0.75;0.30;;;9.30;99.90;;;;;;5072832;28;20573;-57
2023/01/13 11:46:28;;;;;;;0.47;0.20;;;9.30;99.90;;;;;;5072320;28;20509;-55
2023/01/13 11:48:56;;;;;;;0.40;0.20;;;9.40;99.90;;;;;;5071416;28;20506;-55
2023/01/13 11:51:34;;;;;;;0.50;0.20;;;9.30;99.90;;;;;;5070998;28;20769;-58
2023/01/13 11:54:26;;;;;;;1.75;0.25;;;9.50;99.90;;;;;;5071404;28;20917;-57
2023/01/13 11:57:12;;;;;;;0.50;0.20;;;9.60;99.90;;;;;;5071254;28;20463;-58
2023/01/13 12:00:12;;;;;;;0.40;0.10;;;9.60;99.90;;;;;;5071599;28;20462;-58
2023/01/13 12:02:50;;;;;;;0.40;0.20;;;9.50;99.90;;;;;;5071042;28;20415;-57
2023/01/13 12:05:25;;;;;;;0.50;0.20;;;9.50;99.90;;;;;;5070650;28;20756;-58
2023/01/13 12:08:03;;;;;;;0.90;0.17;;;9.60;99.90;;;;;;5072178;28;20424;-58
2023/01/13 12:10:51;;;;;;;1.00;0.10;;;9.60;99.90;;;;;;5071730;28;20529;-58
2023/01/13 12:13:28;;;;;;;0.70;0.30;;;9.60;99.90;;;;;;5071589;28;20937;-58
2023/01/13 12:16:24;;;;;;;0.68;0.30;;;9.50;99.90;;;;;;5070205;28;20813;-59
2023/01/13 12:19:18;;;;;;;0.40;0.20;;;9.40;99.90;;;;;;5065349;28;20485;-58
2023/01/13 12:21:58;;;;;;;0.80;0.20;;;9.20;99.90;;;;;;5068197;28;20422;-58
2023/01/13 12:24:31;;;;;;;0.50;0.20;;;9.20;99.90;;;;;;5069657;28;20743;-57
2023/01/13 12:27:04;;;;;;;0.52;0.20;;;9.40;99.90;;;;;;5069501;28;20515;-56
2023/01/13 12:29:35;;;;;;;1.10;0.20;;;9.50;99.90;;;;;;5067462;28;20922;-58
2023/01/13 12:32:06;;;;;;;0.40;0.20;;;9.70;99.90;;;;;;5069624;28;20740;-58
2023/01/13 12:34:53;;;;;;;0.88;0.20;;;9.70;99.90;;;;;;5069641;28;20420;-58
2023/01/13 12:37:27;;;;;;;0.60;0.20;;;9.90;99.90;;;;;;5068063;28;20431;-57
2023/01/13 12:40:12;;;;;;;0.40;0.20;;;9.90;99.90;;;;;;5069711;28;20796;-58
2023/01/13 12:45:34;;;;;;;0.70;0.20;;;9.70;99.90;;;;;;5061238;28;20492;-53
2023/01/13 12:48:02;;;;;;;1.00;0.20;;;9.70;99.90;;;;;;5068599;28;20538;-55
2023/01/13 12:50:43;;;;;;;1.63;0.20;;;9.80;99.90;;;;;;5068206;28;20420;-53
2023/01/13 12:53:37;;;;;;;0.40;0.20;;;9.90;99.90;;;;;;5068560;28;20430;-55
2023/01/13 12:56:28;;;;;;;0.50;0.20;;;10.00;99.90;;;;;;5070553;28;20435;-54
2023/01/13 12:59:47;;;;;;;1.70;0.20;;;10.00;99.90;;;;;;5068881;28;20542;-55
2023/01/13 13:02:37;;;;;;;0.40;0.20;;;9.90;99.90;;;;;;5071041;28;20427;-55
2023/01/13 13:05:34;;;;;;;0.65;0.20;;;9.90;99.90;;;;;;5070442;28;20451;-55
2023/01/13 13:08:10;;;;;;;0.63;0.20;;;10.00;99.90;;;;;;5069516;28;20522;-55
2023/01/13 13:10:42;;;;;;;1.53;0.30;;;9.90;99.90;;;;;;5072252;28;20455;-55
2023/01/13 13:13:38;;;;;;;0.60;0.20;;;9.90;99.90;;;;;;5072090;28;20545;-57
2023/01/13 13:16:59;;;;;;;0.68;0.20;;;10.00;99.90;;;;;;5071557;28;20419;-55
2023/01/13 13:19:45;;;;;;;1.13;0.50;;;9.90;99.90;;;;;;5030873;28;20469;-55
2023/01/13 13:22:42;;;;;;;0.90;0.30;;;9.90;99.90;;;;;;5065598;28;20431;-55
2023/01/13 13:25:25;;;;;;;1.20;0.30;;;9.90;99.90;;;;;;5065806;28;20746;-51
2023/01/13 13:28:21;;;;;;;0.70;0.30;;;9.90;99.90;;;;;;5069354;28;20418;-55
2023/01/13 13:31:01;;;;;;;1.17;0.20;;;9.90;99.90;;;;;;5053515;28;20522;-56
2023/01/13 13:33:45;;;;;;;0.60;0.30;;;9.80;99.90;;;;;;5064191;28;21042;-55
2023/01/13 13:36:41;;;;;;;0.93;0.28;;;9.90;99.90;;;;;;5062858;28;20433;-56
2023/01/13 13:47:42;;;;;;;2.00;0.40;;;10.00;99.90;;;;;;5073949;28;20598;-53
2023/01/13 13:50:14;;;;;;;1.33;0.30;;;9.90;99.90;;;;;;5073670;28;20529;-54
2023/01/13 13:52:50;;;;;;;0.85;0.30;;;9.90;99.90;;;;;;5073205;28;20425;-56
2023/01/13 13:55:23;;;;;;;0.90;0.35;;;9.90;99.90;;;;;;5073796;28;20426;-55
2023/01/13 13:57:53;;;;;;;0.77;0.20;;;9.90;99.90;;;;;;5070477;28;20868;-52
2023/01/13 14:00:26;;;;;;;1.60;0.20;;;9.80;99.90;;;;;;5071622;28;20438;-55
2023/01/13 14:02:57;;;;;;;1.30;0.30;;;9.80;99.90;;;;;;5072283;28;20477;-55
2023/01/13 14:05:26;;;;;;;0.40;0.10;;;9.70;99.90;;;;;;5074478;28;20477;-53
2023/01/13 14:08:00;;;;;;;0.40;0.10;;;9.80;99.90;;;;;;5074349;28;20500;-54